createdAt,value
2022-08-07T00:00:26.637Z,13.19
2022-08-07T00:02:58.445Z,13.21
2022-08-07T00:05:28.255Z,13.18
2022-08-07T00:08:00.116Z,13.15
2022-08-07T00:10:31.490Z,13.18
2022-08-07T00:13:09.910Z,13.15
2022-08-07T00:15:52.367Z,13.08
2022-08-07T00:18:25.310Z,13.04
2022-08-07T00:21:02.076Z,13.02
2022-08-07T00:23:32.579Z,13.01
2022-08-07T00:26:13.175Z,12.97
2022-08-07T00:28:56.524Z,12.95
2022-08-07T00:31:26.182Z,12.93
2022-08-07T00:34:13.675Z,12.88
2022-08-07T00:36:46.697Z,12.83
2022-08-07T00:39:16.924Z,12.80
2022-08-07T00:42:02.121Z,12.79
2022-08-07T00:44:34.835Z,12.80
2022-08-07T00:47:15.795Z,12.80
2022-08-07T00:50:20.419Z,12.73
2022-08-07T00:52:47.443Z,12.68
2022-08-07T00:55:17.508Z,12.70
2022-08-07T00:57:55.419Z,12.67
2022-08-07T01:00:24.751Z,12.67
2022-08-07T01:02:52.730Z,12.68
2022-08-07T01:05:24.433Z,12.66
2022-08-07T01:07:53.230Z,12.68
2022-08-07T01:10:23.551Z,12.64
2022-08-07T01:12:54.638Z,12.66
2022-08-07T01:15:35.698Z,12.63
2022-08-07T01:18:16.661Z,12.60
2022-08-07T01:21:22.555Z,12.59
2022-08-07T01:23:51.632Z,12.50
2022-08-07T01:26:22.770Z,12.47
2022-08-07T01:28:54.704Z,12.42
2022-08-07T01:31:41.709Z,12.38
2022-08-07T01:34:14.289Z,12.32
2022-08-07T01:36:44.357Z,12.30
2022-08-07T01:39:39.709Z,12.26
2022-08-07T01:42:37.696Z,12.25
2022-08-07T01:45:15.926Z,12.28
2022-08-07T01:48:18.585Z,12.25
2022-08-07T01:50:43.154Z,12.28
2022-08-07T01:53:21.581Z,12.19
2022-08-07T01:56:03.415Z,12.15
2022-08-07T01:58:41.087Z,12.11
2022-08-07T02:01:25.689Z,12.08
2022-08-07T02:04:16.302Z,12.06
2022-08-07T02:06:49.006Z,12.08
2022-08-07T02:09:33.468Z,12.05
2022-08-07T02:12:19.833Z,11.99
2022-08-07T02:15:00.839Z,11.99
2022-08-07T02:17:57.481Z,11.97
2022-08-07T02:20:30.182Z,11.97
2022-08-07T02:23:02.662Z,11.93
2022-08-07T02:26:30.506Z,11.87
2022-08-07T02:28:24.650Z,11.80
2022-08-07T02:30:59.075Z,11.83
2022-08-07T02:33:41.964Z,11.80
2022-08-07T02:36:30.777Z,11.84
2022-08-07T02:39:16.546Z,11.81
2022-08-07T02:41:58.137Z,11.83
2022-08-07T02:44:34.814Z,11.85
2022-08-07T02:47:08.063Z,11.80
2022-08-07T02:49:56.302Z,11.77
2022-08-07T02:52:39.086Z,11.73
2022-08-07T02:55:28.740Z,11.71
2022-08-07T02:58:13.507Z,11.77
2022-08-07T03:00:46.704Z,11.74
2022-08-07T03:03:22.604Z,11.71
2022-08-07T03:05:56.557Z,11.64
2022-08-07T03:08:26.820Z,11.67
2022-08-07T03:10:59.590Z,11.69
2022-08-07T03:13:39.239Z,11.62
2022-08-07T03:16:18.659Z,11.53
2022-08-07T03:18:53.123Z,11.50
2022-08-07T03:21:24.471Z,11.47
2022-08-07T03:24:21.220Z,11.52
2022-08-07T03:26:58.871Z,11.55
2022-08-07T03:29:44.570Z,11.57
2022-08-07T03:32:23.123Z,11.59
2022-08-07T03:35:17.032Z,11.55
2022-08-07T03:37:55.095Z,11.57
2022-08-07T03:40:31.081Z,11.52
2022-08-07T03:43:13.565Z,11.49
2022-08-07T03:45:47.861Z,11.42
2022-08-07T03:48:20.134Z,11.35
2022-08-07T03:50:52.073Z,11.30
2022-08-07T03:53:30.239Z,11.33
2022-08-07T03:56:33.619Z,11.33
2022-08-07T03:59:10.030Z,11.30
2022-08-07T04:01:49.809Z,11.26
2022-08-07T04:04:23.092Z,11.23
2022-08-07T04:06:58.000Z,11.21
2022-08-07T04:09:44.739Z,11.19
2022-08-07T04:12:24.514Z,11.25
2022-08-07T04:14:59.405Z,11.26
2022-08-07T04:18:11.300Z,11.30
2022-08-07T04:20:19.655Z,11.33
2022-08-07T04:22:53.561Z,11.38
2022-08-07T04:25:41.007Z,11.40
2022-08-07T04:28:13.183Z,11.42
2022-08-07T04:30:55.339Z,11.47
2022-08-07T04:33:30.873Z,11.52
2022-08-07T04:35:59.830Z,11.59
2022-08-07T04:38:30.821Z,12.01
2022-08-07T04:40:59.722Z,12.73
2022-08-07T04:44:09.865Z,13.36
2022-08-07T04:47:05.010Z,13.76
2022-08-07T04:50:04.008Z,14.17
2022-08-07T04:53:00.064Z,14.91
2022-08-07T04:58:16.932Z,15.53
2022-08-07T05:00:12.490Z,16.02
2022-08-07T05:02:20.864Z,16.53
2022-08-07T05:05:52.728Z,17.03
2022-08-07T05:08:08.433Z,17.01
2022-08-07T05:10:58.538Z,17.42
2022-08-07T05:14:56.174Z,18.01
2022-08-07T05:16:32.018Z,18.12
2022-08-07T05:19:15.607Z,18.14
2022-08-07T05:22:00.564Z,18.46
2022-08-07T05:24:39.703Z,18.32
2022-08-07T05:27:14.533Z,18.41
2022-08-07T05:30:02.270Z,19.01
2022-08-07T05:32:32.021Z,19.52
2022-08-07T05:35:02.228Z,19.25
2022-08-07T05:37:31.768Z,19.34
2022-08-07T05:40:18.710Z,19.63
2022-08-07T05:42:56.349Z,19.74
2022-08-07T05:45:47.756Z,19.65
2022-08-07T05:48:26.386Z,19.79
2022-08-07T05:51:01.103Z,20.20
2022-08-07T05:54:12.144Z,20.22
2022-08-07T05:56:20.725Z,20.99
2022-08-07T05:59:09.201Z,21.08
2022-08-07T06:01:41.275Z,21.01
2022-08-07T06:04:10.418Z,20.75
2022-08-07T06:06:46.380Z,20.94
2022-08-07T06:09:18.026Z,21.06
2022-08-07T06:11:49.863Z,20.90
2022-08-07T06:14:20.811Z,21.52
2022-08-07T06:16:56.329Z,21.51
2022-08-07T06:19:47.981Z,21.79
2022-08-07T06:22:27.126Z,21.62
2022-08-07T06:25:11.015Z,21.67
2022-08-07T06:28:00.566Z,21.73
2022-08-07T06:30:36.133Z,21.90
2022-08-07T06:33:16.564Z,22.17
2022-08-07T06:36:12.245Z,22.65
2022-08-07T06:38:59.230Z,22.76
2022-08-07T06:42:02.903Z,22.33
2022-08-07T06:44:51.859Z,22.68
2022-08-07T06:47:22.338Z,22.82
2022-08-07T06:49:58.454Z,23.61
2022-08-07T06:52:38.363Z,23.04
2022-08-07T06:55:34.299Z,23.20
2022-08-07T06:58:12.409Z,22.82
2022-08-07T07:00:52.830Z,23.18
2022-08-07T07:03:39.564Z,22.95
2022-08-07T07:06:13.005Z,23.41
2022-08-07T07:08:46.675Z,23.35
2022-08-07T07:12:08.162Z,23.28
2022-08-07T07:14:08.605Z,23.23
2022-08-07T07:16:49.445Z,23.62
2022-08-07T07:19:55.922Z,24.17
2022-08-07T07:22:36.639Z,23.83
2022-08-07T07:26:33.236Z,23.45
2022-08-07T07:28:42.826Z,23.96
2022-08-07T07:31:25.137Z,24.43
2022-08-07T07:34:03.683Z,23.86
2022-08-07T07:36:33.751Z,23.40
2022-08-07T07:39:04.283Z,23.75
2022-08-07T07:42:01.972Z,23.03
2022-08-07T07:44:26.017Z,23.62
2022-08-07T07:47:09.294Z,23.93
2022-08-07T07:50:33.286Z,23.89
2022-08-07T07:52:36.491Z,23.31
2022-08-07T07:55:06.622Z,23.86
2022-08-07T07:57:51.518Z,23.76
2022-08-07T08:00:29.713Z,23.71
2022-08-07T08:03:09.243Z,23.93
2022-08-07T08:05:54.392Z,24.20
2022-08-07T08:08:34.549Z,23.88
2022-08-07T08:11:07.965Z,23.43
2022-08-07T08:13:52.946Z,23.30
2022-08-07T08:18:36.907Z,23.73
2022-08-07T08:20:15.999Z,24.23
2022-08-07T08:22:33.086Z,23.93
2022-08-07T08:25:42.156Z,24.24
2022-08-07T08:28:16.870Z,23.47
2022-08-07T08:30:59.943Z,23.17
2022-08-07T08:33:34.206Z,22.90
2022-08-07T08:36:03.407Z,22.99
2022-08-07T08:38:44.581Z,23.26
2022-08-07T08:41:58.533Z,23.20
2022-08-07T08:44:35.489Z,23.68
2022-08-07T08:47:17.226Z,23.66
2022-08-07T08:50:08.194Z,23.50
2022-08-07T08:53:01.673Z,23.47
2022-08-07T08:55:54.954Z,23.65
2022-08-07T08:58:57.970Z,23.10
2022-08-07T09:01:39.811Z,22.73
2022-08-07T09:04:31.658Z,22.65
2022-08-07T09:07:45.919Z,22.63
2022-08-07T09:10:20.335Z,22.73
2022-08-07T09:13:37.741Z,22.66
2022-08-07T09:16:21.956Z,22.92
2022-08-07T09:19:53.387Z,22.83
2022-08-07T09:24:35.041Z,23.09
2022-08-07T09:26:10.069Z,23.10
2022-08-07T09:30:01.699Z,22.68
2022-08-07T09:31:48.659Z,22.71
2022-08-07T09:34:38.310Z,22.95
2022-08-07T09:37:20.541Z,23.10
2022-08-07T09:40:17.941Z,23.43
2022-08-07T09:43:09.872Z,23.44
2022-08-07T09:47:50.518Z,23.59
2022-08-07T09:50:01.876Z,23.79
2022-08-07T09:52:34.633Z,24.02
2022-08-07T09:55:29.475Z,23.86
2022-08-07T09:58:32.233Z,23.79
2022-08-07T10:01:51.819Z,23.89
2022-08-07T10:04:28.351Z,23.79
2022-08-07T10:07:39.732Z,24.00
2022-08-07T10:10:28.690Z,24.23
2022-08-07T10:13:55.041Z,24.54
2022-08-07T10:16:41.905Z,24.45
2022-08-07T10:19:37.652Z,24.48
2022-08-07T10:22:46.328Z,23.99
2022-08-07T10:25:43.224Z,24.05
2022-08-07T10:28:38.787Z,24.02
2022-08-07T10:31:45.268Z,23.80
2022-08-07T10:34:48.905Z,24.18
2022-08-07T10:38:00.716Z,24.38
2022-08-07T10:40:40.145Z,24.10
2022-08-07T10:43:19.351Z,24.43
2022-08-07T10:46:07.759Z,23.95
2022-08-07T10:48:46.511Z,23.69
2022-08-07T10:51:57.250Z,22.88
2022-08-07T10:54:26.839Z,22.65
2022-08-07T10:57:29.485Z,22.52
2022-08-07T11:00:36.892Z,22.31
2022-08-07T11:03:13.119Z,22.54
2022-08-07T11:05:50.501Z,22.76
2022-08-07T11:08:44.122Z,23.41
2022-08-07T11:11:27.164Z,23.63
2022-08-07T11:14:46.196Z,23.85
2022-08-07T11:17:43.212Z,24.10
2022-08-07T11:20:24.536Z,24.44
2022-08-07T11:23:20.553Z,24.64
2022-08-07T11:26:24.935Z,24.68
2022-08-07T11:29:13.223Z,24.64
2022-08-07T11:32:15.155Z,24.71
2022-08-07T11:35:09.432Z,25.05
2022-08-07T11:38:12.450Z,25.28
2022-08-07T11:41:06.355Z,25.44
2022-08-07T11:44:11.335Z,25.41
2022-08-07T11:47:26.115Z,24.79
2022-08-07T11:50:44.729Z,24.17
2022-08-07T11:54:00.815Z,23.44
2022-08-07T11:56:40.709Z,23.52
2022-08-07T12:00:10.248Z,23.72
2022-08-07T12:02:31.288Z,24.00
2022-08-07T12:05:09.035Z,24.28
2022-08-07T12:08:00.600Z,24.65
2022-08-07T12:11:08.109Z,25.02
2022-08-07T12:13:58.540Z,25.58
2022-08-07T12:16:31.053Z,25.99
2022-08-07T12:19:21.450Z,25.92
2022-08-07T12:22:39.342Z,25.52
2022-08-07T12:26:05.459Z,24.99
2022-08-07T12:28:34.923Z,24.58
2022-08-07T12:31:11.388Z,24.58
2022-08-07T12:34:01.238Z,24.60
2022-08-07T12:36:33.569Z,24.55
2022-08-07T12:39:09.540Z,24.55
2022-08-07T12:41:55.016Z,24.89
2022-08-07T12:44:25.891Z,24.68
2022-08-07T12:47:06.984Z,24.34
2022-08-07T12:50:04.371Z,24.44
2022-08-07T12:52:52.342Z,25.10
2022-08-07T12:56:02.062Z,25.35
2022-08-07T12:58:39.586Z,24.76
2022-08-07T13:01:35.812Z,24.58
2022-08-07T13:04:34.067Z,24.40
2022-08-07T13:08:12.246Z,24.43
2022-08-07T13:10:39.563Z,24.33
2022-08-07T13:13:47.558Z,24.47
2022-08-07T13:16:22.757Z,24.47
2022-08-07T13:19:21.849Z,24.23
2022-08-07T13:22:12.783Z,24.58
2022-08-07T13:25:02.953Z,24.67
2022-08-07T13:28:12.433Z,24.67
2022-08-07T13:30:41.246Z,24.35
2022-08-07T13:34:34.583Z,23.99
2022-08-07T13:36:46.856Z,23.86
2022-08-07T13:40:34.232Z,23.52
2022-08-07T13:42:25.525Z,23.41
2022-08-07T13:46:07.163Z,23.24
2022-08-07T13:48:08.077Z,23.14
2022-08-07T13:50:44.495Z,23.23
2022-08-07T13:53:45.734Z,23.33
2022-08-07T13:56:36.256Z,23.28
2022-08-07T13:59:15.668Z,23.07
2022-08-07T14:01:51.563Z,23.18
2022-08-07T14:04:35.999Z,23.16
2022-08-07T14:07:10.746Z,23.44
2022-08-07T14:10:02.304Z,23.54
2022-08-07T14:12:36.304Z,23.37
2022-08-07T14:15:23.864Z,23.73
2022-08-07T14:18:27.135Z,23.75
2022-08-07T14:20:48.815Z,23.95
2022-08-07T14:24:00.493Z,24.30
2022-08-07T14:26:30.353Z,23.66
2022-08-07T14:29:08.859Z,23.82
2022-08-07T14:31:59.264Z,24.10
2022-08-07T14:34:32.842Z,24.33
2022-08-07T14:37:03.381Z,23.88
2022-08-07T14:42:32.638Z,23.93
2022-08-07T14:45:21.663Z,23.93
2022-08-07T14:47:52.989Z,23.72
2022-08-07T14:54:09.847Z,23.51
2022-08-07T14:56:13.890Z,23.43
2022-08-07T14:58:45.211Z,23.65
2022-08-07T15:04:06.933Z,23.69
2022-08-07T15:06:39.136Z,23.58
2022-08-07T15:10:00.001Z,23.48
2022-08-07T15:12:09.320Z,23.50
2022-08-07T15:14:56.051Z,23.35
2022-08-07T15:17:54.603Z,23.18
2022-08-07T15:20:33.291Z,23.20
2022-08-07T15:23:16.959Z,23.04
2022-08-07T15:25:56.912Z,22.93
2022-08-07T15:28:36.192Z,22.92
2022-08-07T15:32:01.275Z,22.99
2022-08-07T15:34:15.001Z,22.92
2022-08-07T15:37:03.284Z,23.03
2022-08-07T15:39:56.853Z,22.95
2022-08-07T15:42:52.817Z,23.02
2022-08-07T15:45:56.545Z,22.97
2022-08-07T15:48:33.275Z,22.68
2022-08-07T15:51:10.032Z,22.66
2022-08-07T15:53:53.619Z,22.72
2022-08-07T15:56:41.680Z,22.68
2022-08-07T15:59:16.326Z,22.55
2022-08-07T16:02:01.669Z,22.61
2022-08-07T16:04:33.743Z,22.58
2022-08-07T16:08:28.445Z,22.51
2022-08-07T16:10:14.304Z,22.63
2022-08-07T16:13:57.685Z,22.56
2022-08-07T16:16:56.842Z,22.56
2022-08-07T16:19:59.778Z,22.48
2022-08-07T16:23:09.844Z,22.41
2022-08-07T16:26:01.648Z,22.37
2022-08-07T16:29:18.640Z,22.22
2022-08-07T16:32:02.223Z,22.24
2022-08-07T16:34:48.622Z,22.07
2022-08-07T16:38:04.140Z,21.88
2022-08-07T16:41:05.542Z,21.83
2022-08-07T16:44:53.649Z,21.92
2022-08-07T16:47:27.355Z,22.06
2022-08-07T16:50:38.815Z,22.18
2022-08-07T16:54:02.168Z,22.14
2022-08-07T16:56:38.831Z,22.20
2022-08-07T16:59:47.403Z,22.17
2022-08-07T17:02:52.222Z,22.08
2022-08-07T17:06:18.945Z,22.11
2022-08-07T17:09:10.789Z,21.89
2022-08-07T17:12:04.553Z,21.93
2022-08-07T17:14:55.684Z,21.93
2022-08-07T17:17:48.497Z,21.89
2022-08-07T17:20:31.764Z,21.69
2022-08-07T17:23:32.590Z,21.72
2022-08-07T17:26:29.846Z,21.79
2022-08-07T17:29:18.338Z,21.75
2022-08-07T17:32:51.875Z,21.76
2022-08-07T17:35:55.693Z,21.67
2022-08-07T17:38:50.983Z,21.65
2022-08-07T17:42:02.104Z,21.63
2022-08-07T17:44:49.971Z,21.54
2022-08-07T17:47:38.506Z,21.37
2022-08-07T17:50:30.668Z,21.38
2022-08-07T17:53:09.109Z,21.30
2022-08-07T17:56:28.944Z,21.21
2022-08-07T17:59:10.142Z,21.25
2022-08-07T18:02:00.347Z,21.20
2022-08-07T18:04:43.513Z,21.12
2022-08-07T18:07:34.012Z,21.08
2022-08-07T18:12:16.598Z,21.03
2022-08-07T18:13:45.431Z,20.94
2022-08-07T18:16:31.078Z,20.91
2022-08-07T18:21:08.707Z,20.84
2022-08-07T18:22:31.866Z,20.79
2022-08-07T18:25:19.463Z,20.73
2022-08-07T18:28:35.717Z,20.65
2022-08-07T18:31:40.552Z,20.62
2022-08-07T18:35:00.952Z,20.56
2022-08-07T18:38:57.224Z,20.48
2022-08-07T18:41:16.738Z,20.38
2022-08-07T18:44:10.629Z,20.34
2022-08-07T18:47:04.245Z,20.28
2022-08-07T18:50:29.986Z,20.18
2022-08-07T18:52:53.902Z,20.11
2022-08-07T18:55:41.974Z,20.01
2022-08-07T18:58:34.648Z,19.94
2022-08-07T19:02:20.043Z,19.87
2022-08-07T19:04:57.764Z,19.77
2022-08-07T19:08:12.823Z,19.72
2022-08-07T19:10:59.493Z,19.62
2022-08-07T19:13:50.300Z,19.56
2022-08-07T19:17:01.494Z,19.46
2022-08-07T19:19:49.660Z,19.36
2022-08-07T19:22:39.834Z,19.29
2022-08-07T19:26:21.866Z,19.18
2022-08-07T19:28:30.059Z,19.08
2022-08-07T19:31:42.759Z,18.99
2022-08-07T19:34:14.623Z,18.89
2022-08-07T19:37:16.946Z,18.84
2022-08-07T19:39:57.782Z,18.74
2022-08-07T19:42:40.453Z,18.67
2022-08-07T19:46:04.874Z,18.60
2022-08-07T19:48:18.718Z,18.56
2022-08-07T19:50:54.352Z,18.49
2022-08-07T19:54:32.247Z,18.45
2022-08-07T19:57:56.779Z,18.34
2022-08-07T19:59:22.761Z,18.27
2022-08-07T20:02:19.217Z,18.18
2022-08-07T20:05:04.015Z,18.15
2022-08-07T20:07:47.380Z,18.12
2022-08-07T20:10:36.214Z,18.08
2022-08-07T20:13:27.059Z,18.02
2022-08-07T20:16:03.309Z,17.96
2022-08-07T20:18:34.342Z,17.93
2022-08-07T20:21:14.816Z,17.86
2022-08-07T20:24:01.057Z,17.82
2022-08-07T20:26:32.644Z,17.79
2022-08-07T20:29:17.009Z,17.70
2022-08-07T20:32:11.428Z,17.63
2022-08-07T20:34:57.772Z,17.55
2022-08-07T20:37:46.806Z,17.49
2022-08-07T20:40:33.024Z,17.38
2022-08-07T20:43:14.859Z,17.28
2022-08-07T20:46:28.667Z,17.24
2022-08-07T20:49:54.582Z,17.12
2022-08-07T20:51:40.442Z,17.06
2022-08-07T20:54:29.615Z,16.95
2022-08-07T20:57:03.787Z,16.87
2022-08-07T21:00:06.735Z,16.85
2022-08-07T21:02:54.200Z,16.79
2022-08-07T21:05:51.233Z,16.72
2022-08-07T21:08:37.696Z,16.62
2022-08-07T21:11:22.012Z,16.55
2022-08-07T21:14:32.820Z,16.49
2022-08-07T21:18:00.741Z,16.45
2022-08-07T21:19:51.798Z,16.38
2022-08-07T21:22:51.204Z,16.36
2022-08-07T21:25:38.883Z,16.30
2022-08-07T21:28:49.556Z,16.24
2022-08-07T21:31:31.441Z,16.17
2022-08-07T21:34:21.384Z,16.14
2022-08-07T21:37:57.305Z,16.12
2022-08-07T21:40:47.429Z,16.04
2022-08-07T21:43:55.426Z,16.00
2022-08-07T21:46:38.430Z,15.94
2022-08-07T21:49:26.877Z,15.89
2022-08-07T21:52:32.790Z,15.89
2022-08-07T21:55:30.760Z,15.84
2022-08-07T21:58:30.476Z,15.82
2022-08-07T22:01:08.519Z,15.74
2022-08-07T22:03:51.678Z,15.73
2022-08-07T22:06:30.780Z,15.71
2022-08-07T22:09:10.324Z,15.65
2022-08-07T22:12:05.648Z,15.62
2022-08-07T22:15:00.094Z,15.57
2022-08-07T22:17:37.737Z,15.52
2022-08-07T22:20:50.584Z,15.46
2022-08-07T22:23:52.604Z,15.42
2022-08-07T22:26:45.035Z,15.43
2022-08-07T22:29:33.747Z,15.39
2022-08-07T22:32:20.088Z,15.35
2022-08-07T22:34:53.703Z,15.36
2022-08-07T22:38:03.694Z,15.35
2022-08-07T22:41:02.937Z,15.29
2022-08-07T22:43:51.314Z,15.25
2022-08-07T22:47:03.650Z,15.18
2022-08-07T22:49:59.759Z,15.19
2022-08-07T22:53:10.174Z,15.12
2022-08-07T22:55:46.218Z,15.11
2022-08-07T22:58:44.507Z,15.08
2022-08-07T23:01:49.898Z,15.05
2022-08-07T23:04:30.648Z,15.07
2022-08-07T23:07:04.944Z,15.04
2022-08-07T23:10:38.166Z,14.98
2022-08-07T23:13:20.587Z,14.94
2022-08-07T23:16:46.343Z,14.95
2022-08-07T23:20:00.092Z,14.90
2022-08-07T23:22:55.800Z,14.81
2022-08-07T23:25:53.598Z,14.81
2022-08-07T23:28:44.299Z,14.77
2022-08-07T23:32:48.919Z,14.72
2022-08-07T23:34:43.369Z,14.67
2022-08-07T23:37:29.890Z,14.67
2022-08-07T23:40:51.917Z,14.63
2022-08-07T23:43:38.258Z,14.63
2022-08-07T23:46:23.860Z,14.63
2022-08-07T23:49:04.461Z,14.59
2022-08-07T23:53:06.716Z,14.59
2022-08-07T23:54:57.684Z,14.53
2022-08-07T23:57:36.506Z,14.49
